sensor_id;sensor_type;location;lat;lon;timestamp;temperature;humidity
60309;DHT22;50313;52.894;6.492;2023-12-04T00:01:22;0.40;99.90
60309;DHT22;50313;52.894;6.492;2023-12-04T00:03:47;0.40;99.90
60309;DHT22;50313;52.894;6.492;2023-12-04T00:06:13;0.40;99.90
60309;DHT22;50313;52.894;6.492;2023-12-04T00:08:40;0.40;99.90
60309;DHT22;50313;52.894;6.492;2023-12-04T00:11:06;0.40;99.90
60309;DHT22;50313;52.894;6.492;2023-12-04T00:13:31;0.40;99.90
60309;DHT22;50313;52.894;6.492;2023-12-04T00:15:57;0.40;99.90
60309;DHT22;50313;52.894;6.492;2023-12-04T00:18:23;0.40;99.90
60309;DHT22;50313;52.894;6.492;2023-12-04T00:20:48;0.40;99.90
60309;DHT22;50313;52.894;6.492;2023-12-04T00:23:14;0.40;99.90
60309;DHT22;50313;52.894;6.492;2023-12-04T00:25:40;0.40;99.90
60309;DHT22;50313;52.894;6.492;2023-12-04T00:28:06;0.40;99.90
60309;DHT22;50313;52.894;6.492;2023-12-04T00:30:31;0.40;99.90
60309;DHT22;50313;52.894;6.492;2023-12-04T00:32:57;0.40;99.90
60309;DHT22;50313;52.894;6.492;2023-12-04T00:35:23;0.40;99.90
60309;DHT22;50313;52.894;6.492;2023-12-04T00:37:48;0.40;99.90
60309;DHT22;50313;52.894;6.492;2023-12-04T00:40:14;0.50;99.90
60309;DHT22;50313;52.894;6.492;2023-12-04T00:42:40;0.40;99.90
60309;DHT22;50313;52.894;6.492;2023-12-04T00:45:06;0.40;99.90
60309;DHT22;50313;52.894;6.492;2023-12-04T00:47:32;0.40;99.90
60309;DHT22;50313;52.894;6.492;2023-12-04T00:49:58;0.40;99.90
60309;DHT22;50313;52.894;6.492;2023-12-04T00:52:23;0.40;99.90
60309;DHT22;50313;52.894;6.492;2023-12-04T00:54:49;0.40;99.90
60309;DHT22;50313;52.894;6.492;2023-12-04T00:57:15;0.40;99.90
60309;DHT22;50313;52.894;6.492;2023-12-04T00:59:41;0.40;99.90
60309;DHT22;50313;52.894;6.492;2023-12-04T01:02:07;0.40;99.90
60309;DHT22;50313;52.894;6.492;2023-12-04T01:04:33;0.40;99.90
60309;DHT22;50313;52.894;6.492;2023-12-04T01:06:59;0.40;99.90
60309;DHT22;50313;52.894;6.492;2023-12-04T01:09:24;0.50;99.90
60309;DHT22;50313;52.894;6.492;2023-12-04T01:11:54;0.40;99.90
60309;DHT22;50313;52.894;6.492;2023-12-04T01:14:20;0.50;99.90
60309;DHT22;50313;52.894;6.492;2023-12-04T01:16:46;0.50;99.90
60309;DHT22;50313;52.894;6.492;2023-12-04T01:19:12;0.50;99.90
60309;DHT22;50313;52.894;6.492;2023-12-04T01:21:38;0.50;99.90
60309;DHT22;50313;52.894;6.492;2023-12-04T01:24:04;0.40;99.90
60309;DHT22;50313;52.894;6.492;2023-12-04T01:26:30;0.50;99.90
60309;DHT22;50313;52.894;6.492;2023-12-04T01:28:56;0.40;99.90
60309;DHT22;50313;52.894;6.492;2023-12-04T01:31:21;0.50;99.90
60309;DHT22;50313;52.894;6.492;2023-12-04T01:33:47;0.40;99.90
60309;DHT22;50313;52.894;6.492;2023-12-04T01:36:13;0.40;99.90
60309;DHT22;50313;52.894;6.492;2023-12-04T01:38:39;0.50;99.90
60309;DHT22;50313;52.894;6.492;2023-12-04T01:41:05;0.50;99.90
60309;DHT22;50313;52.894;6.492;2023-12-04T01:43:31;0.40;99.90
60309;DHT22;50313;52.894;6.492;2023-12-04T01:45:57;0.50;99.90
60309;DHT22;50313;52.894;6.492;2023-12-04T01:48:25;0.50;99.90
60309;DHT22;50313;52.894;6.492;2023-12-04T01:50:52;0.40;99.90
60309;DHT22;50313;52.894;6.492;2023-12-04T01:53:17;0.50;99.90
60309;DHT22;50313;52.894;6.492;2023-12-04T01:55:43;0.50;99.90
60309;DHT22;50313;52.894;6.492;2023-12-04T01:58:10;0.50;99.90
60309;DHT22;50313;52.894;6.492;2023-12-04T02:00:36;0.50;99.90
60309;DHT22;50313;52.894;6.492;2023-12-04T02:03:02;0.50;99.90
60309;DHT22;50313;52.894;6.492;2023-12-04T02:05:28;0.50;99.90
60309;DHT22;50313;52.894;6.492;2023-12-04T02:07:55;0.50;99.90
60309;DHT22;50313;52.894;6.492;2023-12-04T02:10:23;0.50;99.90
60309;DHT22;50313;52.894;6.492;2023-12-04T02:12:50;0.50;99.90
60309;DHT22;50313;52.894;6.492;2023-12-04T02:15:16;0.50;99.90
60309;DHT22;50313;52.894;6.492;2023-12-04T02:17:43;0.50;99.90
60309;DHT22;50313;52.894;6.492;2023-12-04T02:20:12;0.50;99.90
60309;DHT22;50313;52.894;6.492;2023-12-04T02:22:38;0.60;99.90
60309;DHT22;50313;52.894;6.492;2023-12-04T02:25:05;0.50;99.90
60309;DHT22;50313;52.894;6.492;2023-12-04T02:27:39;0.50;99.90
60309;DHT22;50313;52.894;6.492;2023-12-04T02:30:08;0.50;99.90
60309;DHT22;50313;52.894;6.492;2023-12-04T02:32:40;0.60;99.90
60309;DHT22;50313;52.894;6.492;2023-12-04T02:35:09;0.50;99.90
60309;DHT22;50313;52.894;6.492;2023-12-04T02:37:35;0.60;99.90
60309;DHT22;50313;52.894;6.492;2023-12-04T02:40:02;0.60;99.90
60309;DHT22;50313;52.894;6.492;2023-12-04T02:42:27;0.60;99.90
60309;DHT22;50313;52.894;6.492;2023-12-04T02:44:53;0.60;99.90
60309;DHT22;50313;52.894;6.492;2023-12-04T02:47:19;0.60;99.90
60309;DHT22;50313;52.894;6.492;2023-12-04T02:49:45;0.50;99.90
60309;DHT22;50313;52.894;6.492;2023-12-04T02:52:11;0.50;99.90
60309;DHT22;50313;52.894;6.492;2023-12-04T02:54:36;0.50;99.90
60309;DHT22;50313;52.894;6.492;2023-12-04T02:57:02;0.50;99.90
60309;DHT22;50313;52.894;6.492;2023-12-04T02:59:28;0.50;99.90
60309;DHT22;50313;52.894;6.492;2023-12-04T03:01:54;0.50;99.90
60309;DHT22;50313;52.894;6.492;2023-12-04T03:04:20;0.50;99.90
60309;DHT22;50313;52.894;6.492;2023-12-04T03:06:46;0.60;99.90
60309;DHT22;50313;52.894;6.492;2023-12-04T03:09:11;0.50;99.90
60309;DHT22;50313;52.894;6.492;2023-12-04T03:11:41;0.60;99.90
60309;DHT22;50313;52.894;6.492;2023-12-04T03:14:07;0.60;99.90
60309;DHT22;50313;52.894;6.492;2023-12-04T03:16:32;0.60;99.90
60309;DHT22;50313;52.894;6.492;2023-12-04T03:18:58;0.70;99.90
60309;DHT22;50313;52.894;6.492;2023-12-04T03:21:24;0.70;99.90
60309;DHT22;50313;52.894;6.492;2023-12-04T03:23:50;0.70;99.90
60309;DHT22;50313;52.894;6.492;2023-12-04T03:26:15;0.60;99.90
60309;DHT22;50313;52.894;6.492;2023-12-04T03:28:41;0.70;99.90
60309;DHT22;50313;52.894;6.492;2023-12-04T03:31:07;0.60;99.90
60309;DHT22;50313;52.894;6.492;2023-12-04T03:33:33;0.70;99.90
60309;DHT22;50313;52.894;6.492;2023-12-04T03:35:59;0.70;99.90
60309;DHT22;50313;52.894;6.492;2023-12-04T03:38:25;0.70;99.90
60309;DHT22;50313;52.894;6.492;2023-12-04T03:40:51;0.70;99.90
60309;DHT22;50313;52.894;6.492;2023-12-04T03:43:17;0.70;99.90
60309;DHT22;50313;52.894;6.492;2023-12-04T03:45:42;0.60;99.90
60309;DHT22;50313;52.894;6.492;2023-12-04T03:48:08;0.70;99.90
60309;DHT22;50313;52.894;6.492;2023-12-04T03:50:34;0.60;99.90
60309;DHT22;50313;52.894;6.492;2023-12-04T03:53:00;0.60;99.90
60309;DHT22;50313;52.894;6.492;2023-12-04T03:55:25;0.60;99.90
60309;DHT22;50313;52.894;6.492;2023-12-04T03:57:52;0.70;99.90
60309;DHT22;50313;52.894;6.492;2023-12-04T04:00:18;0.70;99.90
60309;DHT22;50313;52.894;6.492;2023-12-04T04:02:44;0.70;99.90
60309;DHT22;50313;52.894;6.492;2023-12-04T04:05:10;0.60;99.90
60309;DHT22;50313;52.894;6.492;2023-12-04T04:07:36;0.70;99.90
60309;DHT22;50313;52.894;6.492;2023-12-04T04:10:02;0.60;99.90
60309;DHT22;50313;52.894;6.492;2023-12-04T04:12:30;0.60;99.90
60309;DHT22;50313;52.894;6.492;2023-12-04T04:14:56;0.60;99.90
60309;DHT22;50313;52.894;6.492;2023-12-04T04:17:22;0.60;99.90
60309;DHT22;50313;52.894;6.492;2023-12-04T04:19:52;0.60;99.90
60309;DHT22;50313;52.894;6.492;2023-12-04T04:22:18;0.70;99.90
60309;DHT22;50313;52.894;6.492;2023-12-04T04:24:43;0.60;99.90
60309;DHT22;50313;52.894;6.492;2023-12-04T04:27:09;0.70;99.90
60309;DHT22;50313;52.894;6.492;2023-12-04T04:29:35;0.70;99.90
60309;DHT22;50313;52.894;6.492;2023-12-04T04:32:00;0.70;99.90
60309;DHT22;50313;52.894;6.492;2023-12-04T04:34:26;0.60;99.90
60309;DHT22;50313;52.894;6.492;2023-12-04T04:36:52;0.70;99.90
60309;DHT22;50313;52.894;6.492;2023-12-04T04:39:18;0.70;99.90
60309;DHT22;50313;52.894;6.492;2023-12-04T04:41:44;0.70;99.90
60309;DHT22;50313;52.894;6.492;2023-12-04T04:44:10;0.70;99.90
60309;DHT22;50313;52.894;6.492;2023-12-04T04:46:35;0.70;99.90
60309;DHT22;50313;52.894;6.492;2023-12-04T04:49:01;0.80;99.90
60309;DHT22;50313;52.894;6.492;2023-12-04T04:51:28;0.70;99.90
60309;DHT22;50313;52.894;6.492;2023-12-04T04:53:56;0.70;99.90
60309;DHT22;50313;52.894;6.492;2023-12-04T04:56:22;0.70;99.90
60309;DHT22;50313;52.894;6.492;2023-12-04T04:58:48;0.70;99.90
60309;DHT22;50313;52.894;6.492;2023-12-04T05:01:14;0.80;99.90
60309;DHT22;50313;52.894;6.492;2023-12-04T05:03:40;0.70;99.90
60309;DHT22;50313;52.894;6.492;2023-12-04T05:06:06;0.70;99.90
60309;DHT22;50313;52.894;6.492;2023-12-04T05:08:32;0.70;99.90
60309;DHT22;50313;52.894;6.492;2023-12-04T05:10:58;0.70;99.90
60309;DHT22;50313;52.894;6.492;2023-12-04T05:13:23;0.70;99.90
60309;DHT22;50313;52.894;6.492;2023-12-04T05:15:49;0.70;99.90
60309;DHT22;50313;52.894;6.492;2023-12-04T05:18:15;0.70;99.90
60309;DHT22;50313;52.894;6.492;2023-12-04T05:20:41;0.70;99.90
60309;DHT22;50313;52.894;6.492;2023-12-04T05:23:06;0.60;99.90
60309;DHT22;50313;52.894;6.492;2023-12-04T05:25:32;0.60;99.90
60309;DHT22;50313;52.894;6.492;2023-12-04T05:27:58;0.70;99.90
60309;DHT22;50313;52.894;6.492;2023-12-04T05:30:23;0.60;99.90
60309;DHT22;50313;52.894;6.492;2023-12-04T05:32:49;0.70;99.90
60309;DHT22;50313;52.894;6.492;2023-12-04T05:35:15;0.70;99.90
60309;DHT22;50313;52.894;6.492;2023-12-04T05:37:42;0.70;99.90
60309;DHT22;50313;52.894;6.492;2023-12-04T05:40:08;0.70;99.90
60309;DHT22;50313;52.894;6.492;2023-12-04T05:42:34;0.70;99.90
60309;DHT22;50313;52.894;6.492;2023-12-04T05:45:00;0.70;99.90
60309;DHT22;50313;52.894;6.492;2023-12-04T05:47:26;0.70;99.90
60309;DHT22;50313;52.894;6.492;2023-12-04T05:49:52;0.70;99.90
60309;DHT22;50313;52.894;6.492;2023-12-04T05:52:17;0.90;99.90
60309;DHT22;50313;52.894;6.492;2023-12-04T05:54:43;0.70;99.90
60309;DHT22;50313;52.894;6.492;2023-12-04T05:57:09;0.80;99.90
60309;DHT22;50313;52.894;6.492;2023-12-04T05:59:35;0.70;99.90
60309;DHT22;50313;52.894;6.492;2023-12-04T06:02:01;0.80;99.90
60309;DHT22;50313;52.894;6.492;2023-12-04T06:04:27;0.70;99.90
60309;DHT22;50313;52.894;6.492;2023-12-04T06:06:53;0.70;99.90
60309;DHT22;50313;52.894;6.492;2023-12-04T06:09:18;0.70;99.90
60309;DHT22;50313;52.894;6.492;2023-12-04T06:11:44;0.70;99.90
60309;DHT22;50313;52.894;6.492;2023-12-04T06:14:10;0.70;99.90
60309;DHT22;50313;52.894;6.492;2023-12-04T06:16:37;0.70;99.90
60309;DHT22;50313;52.894;6.492;2023-12-04T06:19:03;0.70;99.90
60309;DHT22;50313;52.894;6.492;2023-12-04T06:21:30;0.70;99.90
60309;DHT22;50313;52.894;6.492;2023-12-04T06:23:56;0.60;99.90
60309;DHT22;50313;52.894;6.492;2023-12-04T06:26:22;0.60;99.90
60309;DHT22;50313;52.894;6.492;2023-12-04T06:28:49;0.60;99.90
60309;DHT22;50313;52.894;6.492;2023-12-04T06:31:15;0.60;99.90
60309;DHT22;50313;52.894;6.492;2023-12-04T06:33:41;0.60;99.90
60309;DHT22;50313;52.894;6.492;2023-12-04T06:36:07;0.60;99.90
60309;DHT22;50313;52.894;6.492;2023-12-04T06:38:39;0.60;99.90
60309;DHT22;50313;52.894;6.492;2023-12-04T06:41:05;0.60;99.90
60309;DHT22;50313;52.894;6.492;2023-12-04T06:43:31;0.60;99.90
60309;DHT22;50313;52.894;6.492;2023-12-04T06:45:58;0.50;99.90
60309;DHT22;50313;52.894;6.492;2023-12-04T06:48:24;0.50;99.90
60309;DHT22;50313;52.894;6.492;2023-12-04T06:50:51;0.60;99.90
60309;DHT22;50313;52.894;6.492;2023-12-04T06:53:16;0.50;99.90
60309;DHT22;50313;52.894;6.492;2023-12-04T06:55:42;0.50;99.90
60309;DHT22;50313;52.894;6.492;2023-12-04T06:58:08;0.50;99.90
60309;DHT22;50313;52.894;6.492;2023-12-04T07:00:34;0.50;99.90
60309;DHT22;50313;52.894;6.492;2023-12-04T07:03:00;0.50;99.90
60309;DHT22;50313;52.894;6.492;2023-12-04T07:05:25;0.50;99.90
60309;DHT22;50313;52.894;6.492;2023-12-04T07:07:51;0.50;99.90
60309;DHT22;50313;52.894;6.492;2023-12-04T07:10:17;0.50;99.90
60309;DHT22;50313;52.894;6.492;2023-12-04T07:12:44;0.60;99.90
60309;DHT22;50313;52.894;6.492;2023-12-04T07:15:10;0.50;99.90
60309;DHT22;50313;52.894;6.492;2023-12-04T07:17:37;0.50;99.90
60309;DHT22;50313;52.894;6.492;2023-12-04T07:20:03;0.50;99.90
60309;DHT22;50313;52.894;6.492;2023-12-04T07:22:34;0.50;99.90
60309;DHT22;50313;52.894;6.492;2023-12-04T07:25:00;0.50;99.90
60309;DHT22;50313;52.894;6.492;2023-12-04T07:27:26;0.50;99.90
60309;DHT22;50313;52.894;6.492;2023-12-04T07:29:52;0.50;99.90
60309;DHT22;50313;52.894;6.492;2023-12-04T07:32:18;0.50;99.90
60309;DHT22;50313;52.894;6.492;2023-12-04T07:34:44;0.50;99.90
60309;DHT22;50313;52.894;6.492;2023-12-04T07:37:10;0.50;99.90
60309;DHT22;50313;52.894;6.492;2023-12-04T07:39:35;0.50;99.90
60309;DHT22;50313;52.894;6.492;2023-12-04T07:42:01;0.60;99.90
60309;DHT22;50313;52.894;6.492;2023-12-04T07:44:27;0.60;99.90
60309;DHT22;50313;52.894;6.492;2023-12-04T07:46:53;0.60;99.90
60309;DHT22;50313;52.894;6.492;2023-12-04T07:49:19;0.60;99.90
60309;DHT22;50313;52.894;6.492;2023-12-04T07:51:44;0.60;99.90
60309;DHT22;50313;52.894;6.492;2023-12-04T07:54:10;0.60;99.90
60309;DHT22;50313;52.894;6.492;2023-12-04T07:56:37;0.60;99.90
60309;DHT22;50313;52.894;6.492;2023-12-04T07:59:02;0.60;99.90
60309;DHT22;50313;52.894;6.492;2023-12-04T08:01:28;0.60;99.90
60309;DHT22;50313;52.894;6.492;2023-12-04T08:03:54;0.60;99.90
60309;DHT22;50313;52.894;6.492;2023-12-04T08:06:20;0.70;99.90
60309;DHT22;50313;52.894;6.492;2023-12-04T08:08:45;0.70;99.90
60309;DHT22;50313;52.894;6.492;2023-12-04T08:11:11;0.70;99.90
60309;DHT22;50313;52.894;6.492;2023-12-04T08:13:40;0.70;99.90
60309;DHT22;50313;52.894;6.492;2023-12-04T08:16:13;0.70;99.90
60309;DHT22;50313;52.894;6.492;2023-12-04T08:18:40;0.70;99.90
60309;DHT22;50313;52.894;6.492;2023-12-04T08:21:06;0.70;99.90
60309;DHT22;50313;52.894;6.492;2023-12-04T08:23:32;0.70;99.90
60309;DHT22;50313;52.894;6.492;2023-12-04T08:25:58;0.80;99.90
60309;DHT22;50313;52.894;6.492;2023-12-04T08:28:24;0.80;99.90
60309;DHT22;50313;52.894;6.492;2023-12-04T08:30:49;0.80;99.90
60309;DHT22;50313;52.894;6.492;2023-12-04T08:33:15;0.80;99.90
60309;DHT22;50313;52.894;6.492;2023-12-04T08:35:41;0.80;99.90
60309;DHT22;50313;52.894;6.492;2023-12-04T08:38:07;0.80;99.90
60309;DHT22;50313;52.894;6.492;2023-12-04T08:40:32;0.80;99.90
60309;DHT22;50313;52.894;6.492;2023-12-04T08:42:58;0.80;99.90
60309;DHT22;50313;52.894;6.492;2023-12-04T08:45:24;0.80;99.90
60309;DHT22;50313;52.894;6.492;2023-12-04T08:47:50;0.80;99.90
60309;DHT22;50313;52.894;6.492;2023-12-04T08:50:15;0.80;99.90
60309;DHT22;50313;52.894;6.492;2023-12-04T08:52:42;0.80;99.90
60309;DHT22;50313;52.894;6.492;2023-12-04T08:55:08;0.90;99.90
60309;DHT22;50313;52.894;6.492;2023-12-04T08:57:33;0.90;99.90
60309;DHT22;50313;52.894;6.492;2023-12-04T08:59:59;0.90;99.90
60309;DHT22;50313;52.894;6.492;2023-12-04T09:02:25;0.90;99.90
60309;DHT22;50313;52.894;6.492;2023-12-04T09:04:51;1.00;99.90
60309;DHT22;50313;52.894;6.492;2023-12-04T09:07:16;1.00;99.90
60309;DHT22;50313;52.894;6.492;2023-12-04T09:09:42;1.00;99.90
60309;DHT22;50313;52.894;6.492;2023-12-04T09:12:10;1.00;99.90
60309;DHT22;50313;52.894;6.492;2023-12-04T09:14:35;1.00;99.90
60309;DHT22;50313;52.894;6.492;2023-12-04T09:17:01;1.10;99.90
60309;DHT22;50313;52.894;6.492;2023-12-04T09:19:27;1.10;99.90
60309;DHT22;50313;52.894;6.492;2023-12-04T09:21:53;1.10;99.90
60309;DHT22;50313;52.894;6.492;2023-12-04T09:24:18;1.10;99.90
60309;DHT22;50313;52.894;6.492;2023-12-04T09:26:44;1.20;99.90
60309;DHT22;50313;52.894;6.492;2023-12-04T09:29:13;1.20;99.90
60309;DHT22;50313;52.894;6.492;2023-12-04T09:31:39;1.20;99.90
60309;DHT22;50313;52.894;6.492;2023-12-04T09:34:05;1.20;99.90
60309;DHT22;50313;52.894;6.492;2023-12-04T09:36:31;1.20;99.90
60309;DHT22;50313;52.894;6.492;2023-12-04T09:38:57;1.30;99.90
60309;DHT22;50313;52.894;6.492;2023-12-04T09:41:22;1.30;99.90
60309;DHT22;50313;52.894;6.492;2023-12-04T09:43:48;1.40;99.90
60309;DHT22;50313;52.894;6.492;2023-12-04T09:46:15;1.30;99.90
60309;DHT22;50313;52.894;6.492;2023-12-04T09:48:43;1.40;99.90
60309;DHT22;50313;52.894;6.492;2023-12-04T09:51:09;1.50;99.90
60309;DHT22;50313;52.894;6.492;2023-12-04T09:53:36;1.40;99.90
60309;DHT22;50313;52.894;6.492;2023-12-04T09:56:03;1.50;99.90
60309;DHT22;50313;52.894;6.492;2023-12-04T09:58:30;1.50;99.90
60309;DHT22;50313;52.894;6.492;2023-12-04T10:01:00;1.60;99.90
60309;DHT22;50313;52.894;6.492;2023-12-04T10:03:26;1.60;99.90
60309;DHT22;50313;52.894;6.492;2023-12-04T10:05:54;1.60;99.90
60309;DHT22;50313;52.894;6.492;2023-12-04T10:08:20;1.60;99.90
60309;DHT22;50313;52.894;6.492;2023-12-04T10:10:47;1.60;99.90
60309;DHT22;50313;52.894;6.492;2023-12-04T10:13:13;1.60;99.90
60309;DHT22;50313;52.894;6.492;2023-12-04T10:15:49;1.60;99.90
60309;DHT22;50313;52.894;6.492;2023-12-04T10:18:28;1.60;99.90
60309;DHT22;50313;52.894;6.492;2023-12-04T10:20:56;1.60;99.90
60309;DHT22;50313;52.894;6.492;2023-12-04T10:23:23;1.60;99.90
60309;DHT22;50313;52.894;6.492;2023-12-04T10:26:01;1.60;99.90
60309;DHT22;50313;52.894;6.492;2023-12-04T10:28:28;1.60;99.90
60309;DHT22;50313;52.894;6.492;2023-12-04T10:30:55;1.60;99.90
60309;DHT22;50313;52.894;6.492;2023-12-04T10:33:25;1.60;99.90
60309;DHT22;50313;52.894;6.492;2023-12-04T10:35:53;1.70;99.90
60309;DHT22;50313;52.894;6.492;2023-12-04T10:38:20;1.70;99.90
60309;DHT22;50313;52.894;6.492;2023-12-04T10:40:46;1.60;99.90
60309;DHT22;50313;52.894;6.492;2023-12-04T10:43:19;1.60;99.90
60309;DHT22;50313;52.894;6.492;2023-12-04T10:45:46;1.70;99.90
60309;DHT22;50313;52.894;6.492;2023-12-04T10:48:14;1.60;99.90
60309;DHT22;50313;52.894;6.492;2023-12-04T10:50:42;1.60;99.90
60309;DHT22;50313;52.894;6.492;2023-12-04T10:53:13;1.70;98.00
60309;DHT22;50313;52.894;6.492;2023-12-04T10:55:39;1.70;99.90
60309;DHT22;50313;52.894;6.492;2023-12-04T10:58:07;1.80;99.90
60309;DHT22;50313;52.894;6.492;2023-12-04T11:00:35;1.70;72.30
60309;DHT22;50313;52.894;6.492;2023-12-04T11:03:08;1.70;1.00
60309;DHT22;50313;52.894;6.492;2023-12-04T11:05:38;1.80;27.80
60309;DHT22;50313;52.894;6.492;2023-12-04T11:08:06;1.80;1.00
60309;DHT22;50313;52.894;6.492;2023-12-04T11:10:33;1.80;1.00
60309;DHT22;50313;52.894;6.492;2023-12-04T11:13:12;1.90;1.00
60309;DHT22;50313;52.894;6.492;2023-12-04T11:15:40;1.90;1.00
60309;DHT22;50313;52.894;6.492;2023-12-04T11:18:09;2.00;1.00
60309;DHT22;50313;52.894;6.492;2023-12-04T11:20:43;1.90;1.00
60309;DHT22;50313;52.894;6.492;2023-12-04T11:23:09;2.00;1.00
60309;DHT22;50313;52.894;6.492;2023-12-04T11:25:35;2.00;1.00
60309;DHT22;50313;52.894;6.492;2023-12-04T11:28:02;2.10;1.00
60309;DHT22;50313;52.894;6.492;2023-12-04T11:30:29;2.00;1.00
60309;DHT22;50313;52.894;6.492;2023-12-04T11:32:55;2.00;99.90
60309;DHT22;50313;52.894;6.492;2023-12-04T11:35:25;2.00;99.90
60309;DHT22;50313;52.894;6.492;2023-12-04T11:37:52;2.10;1.00
60309;DHT22;50313;52.894;6.492;2023-12-04T11:40:18;2.00;99.90
60309;DHT22;50313;52.894;6.492;2023-12-04T11:42:44;2.00;99.90
60309;DHT22;50313;52.894;6.492;2023-12-04T11:45:10;2.10;99.90
60309;DHT22;50313;52.894;6.492;2023-12-04T11:47:55;2.10;99.90
60309;DHT22;50313;52.894;6.492;2023-12-04T11:50:24;2.20;99.90
60309;DHT22;50313;52.894;6.492;2023-12-04T11:53:16;2.20;99.90
60309;DHT22;50313;52.894;6.492;2023-12-04T11:55:42;2.20;99.90
60309;DHT22;50313;52.894;6.492;2023-12-04T11:58:09;2.20;99.90
60309;DHT22;50313;52.894;6.492;2023-12-04T12:00:36;2.30;99.90
60309;DHT22;50313;52.894;6.492;2023-12-04T12:03:05;2.30;99.90
60309;DHT22;50313;52.894;6.492;2023-12-04T12:05:35;2.30;94.10
60309;DHT22;50313;52.894;6.492;2023-12-04T12:08:05;2.20;1.00
60309;DHT22;50313;52.894;6.492;2023-12-04T12:10:31;2.40;72.30
60309;DHT22;50313;52.894;6.492;2023-12-04T12:12:58;2.40;96.90
60309;DHT22;50313;52.894;6.492;2023-12-04T12:15:24;2.50;98.70
60309;DHT22;50313;52.894;6.492;2023-12-04T12:17:50;2.50;18.20
60309;DHT22;50313;52.894;6.492;2023-12-04T12:20:18;2.50;1.00
60309;DHT22;50313;52.894;6.492;2023-12-04T12:22:48;2.50;1.00
60309;DHT22;50313;52.894;6.492;2023-12-04T12:25:14;2.60;1.00
60309;DHT22;50313;52.894;6.492;2023-12-04T12:27:40;2.50;1.00
60309;DHT22;50313;52.894;6.492;2023-12-04T12:30:07;2.50;1.00
60309;DHT22;50313;52.894;6.492;2023-12-04T12:32:36;2.50;1.00
60309;DHT22;50313;52.894;6.492;2023-12-04T12:35:02;2.50;99.90
60309;DHT22;50313;52.894;6.492;2023-12-04T12:37:29;2.50;1.00
60309;DHT22;50313;52.894;6.492;2023-12-04T12:39:55;2.50;1.00
60309;DHT22;50313;52.894;6.492;2023-12-04T12:42:25;2.50;1.00
60309;DHT22;50313;52.894;6.492;2023-12-04T12:44:52;2.40;1.00
60309;DHT22;50313;52.894;6.492;2023-12-04T12:47:18;2.50;1.00
60309;DHT22;50313;52.894;6.492;2023-12-04T12:49:44;2.40;1.00
60309;DHT22;50313;52.894;6.492;2023-12-04T12:52:11;2.40;1.00
60309;DHT22;50313;52.894;6.492;2023-12-04T12:54:40;2.40;1.00
60309;DHT22;50313;52.894;6.492;2023-12-04T12:57:07;2.40;1.00
60309;DHT22;50313;52.894;6.492;2023-12-04T12:59:33;2.40;9.20
60309;DHT22;50313;52.894;6.492;2023-12-04T13:01:59;2.40;1.00
60309;DHT22;50313;52.894;6.492;2023-12-04T13:04:39;2.40;2.20
60309;DHT22;50313;52.894;6.492;2023-12-04T13:07:05;2.40;1.00
60309;DHT22;50313;52.894;6.492;2023-12-04T13:09:33;2.50;1.00
60309;DHT22;50313;52.894;6.492;2023-12-04T13:11:59;2.40;1.00
60309;DHT22;50313;52.894;6.492;2023-12-04T13:14:27;2.40;1.00
60309;DHT22;50313;52.894;6.492;2023-12-04T13:16:53;2.40;51.00
60309;DHT22;50313;52.894;6.492;2023-12-04T13:19:20;2.40;9.00
60309;DHT22;50313;52.894;6.492;2023-12-04T13:21:46;2.40;1.00
60309;DHT22;50313;52.894;6.492;2023-12-04T13:24:12;2.40;1.00
60309;DHT22;50313;52.894;6.492;2023-12-04T13:26:38;2.40;1.00
60309;DHT22;50313;52.894;6.492;2023-12-04T13:29:04;2.40;1.00
60309;DHT22;50313;52.894;6.492;2023-12-04T13:31:33;2.40;1.00
60309;DHT22;50313;52.894;6.492;2023-12-04T13:33:58;2.30;1.00
60309;DHT22;50313;52.894;6.492;2023-12-04T13:36:24;2.30;99.90
60309;DHT22;50313;52.894;6.492;2023-12-04T13:38:50;2.40;99.90
60309;DHT22;50313;52.894;6.492;2023-12-04T13:41:16;2.40;99.90
60309;DHT22;50313;52.894;6.492;2023-12-04T13:44:05;2.30;99.90
60309;DHT22;50313;52.894;6.492;2023-12-04T13:46:31;2.30;99.90
60309;DHT22;50313;52.894;6.492;2023-12-04T13:48:57;2.40;1.00
60309;DHT22;50313;52.894;6.492;2023-12-04T13:51:23;2.30;99.90
60309;DHT22;50313;52.894;6.492;2023-12-04T13:53:49;2.20;99.90
60309;DHT22;50313;52.894;6.492;2023-12-04T13:56:20;2.20;99.90
60309;DHT22;50313;52.894;6.492;2023-12-04T13:58:49;2.20;1.00
60309;DHT22;50313;52.894;6.492;2023-12-04T14:01:23;2.10;1.00
60309;DHT22;50313;52.894;6.492;2023-12-04T14:03:50;2.20;1.00
60309;DHT22;50313;52.894;6.492;2023-12-04T14:06:16;2.10;76.90
60309;DHT22;50313;52.894;6.492;2023-12-04T14:08:42;2.10;1.00
60309;DHT22;50313;52.894;6.492;2023-12-04T14:11:08;2.10;60.50
60309;DHT22;50313;52.894;6.492;2023-12-04T14:13:36;2.00;46.60
60309;DHT22;50313;52.894;6.492;2023-12-04T14:16:03;2.00;1.00
60309;DHT22;50313;52.894;6.492;2023-12-04T14:18:47;2.00;80.50
60309;DHT22;50313;52.894;6.492;2023-12-04T14:21:13;2.00;96.50
60309;DHT22;50313;52.894;6.492;2023-12-04T14:23:38;1.90;76.70
60309;DHT22;50313;52.894;6.492;2023-12-04T14:26:04;1.90;20.50
60309;DHT22;50313;52.894;6.492;2023-12-04T14:28:30;1.90;65.70
60309;DHT22;50313;52.894;6.492;2023-12-04T14:30:55;1.90;73.50
60309;DHT22;50313;52.894;6.492;2023-12-04T14:33:21;1.90;21.50
60309;DHT22;50313;52.894;6.492;2023-12-04T14:35:47;1.90;93.70
60309;DHT22;50313;52.894;6.492;2023-12-04T14:38:13;1.80;96.60
60309;DHT22;50313;52.894;6.492;2023-12-04T14:40:40;1.90;14.60
60309;DHT22;50313;52.894;6.492;2023-12-04T14:43:06;1.90;1.00
60309;DHT22;50313;52.894;6.492;2023-12-04T14:45:35;1.90;6.80
60309;DHT22;50313;52.894;6.492;2023-12-04T14:48:02;1.90;1.00
60309;DHT22;50313;52.894;6.492;2023-12-04T14:50:32;1.90;1.00
60309;DHT22;50313;52.894;6.492;2023-12-04T14:52:58;1.90;1.00
60309;DHT22;50313;52.894;6.492;2023-12-04T14:55:37;1.90;1.00
60309;DHT22;50313;52.894;6.492;2023-12-04T14:58:28;1.90;1.00
60309;DHT22;50313;52.894;6.492;2023-12-04T15:01:10;1.90;1.00
60309;DHT22;50313;52.894;6.492;2023-12-04T15:03:54;1.90;1.00
60309;DHT22;50313;52.894;6.492;2023-12-04T15:06:39;1.90;1.00
60309;DHT22;50313;52.894;6.492;2023-12-04T15:09:23;1.90;1.00
60309;DHT22;50313;52.894;6.492;2023-12-04T15:12:04;1.90;1.00
60309;DHT22;50313;52.894;6.492;2023-12-04T15:14:56;1.90;1.00
60309;DHT22;50313;52.894;6.492;2023-12-04T15:17:38;1.90;1.00
60309;DHT22;50313;52.894;6.492;2023-12-04T15:20:20;1.90;1.00
60309;DHT22;50313;52.894;6.492;2023-12-04T15:22:52;1.90;1.00
60309;DHT22;50313;52.894;6.492;2023-12-04T15:25:18;1.90;1.00
60309;DHT22;50313;52.894;6.492;2023-12-04T15:27:46;1.90;1.00
60309;DHT22;50313;52.894;6.492;2023-12-04T15:30:12;1.90;1.00
60309;DHT22;50313;52.894;6.492;2023-12-04T15:32:41;1.90;1.00
60309;DHT22;50313;52.894;6.492;2023-12-04T15:35:07;1.90;1.00
60309;DHT22;50313;52.894;6.492;2023-12-04T15:37:34;1.90;71.00
60309;DHT22;50313;52.894;6.492;2023-12-04T15:39:59;1.90;1.00
60309;DHT22;50313;52.894;6.492;2023-12-04T15:42:25;1.90;1.00
60309;DHT22;50313;52.894;6.492;2023-12-04T15:44:52;1.90;1.00
60309;DHT22;50313;52.894;6.492;2023-12-04T15:47:18;1.90;99.90
60309;DHT22;50313;52.894;6.492;2023-12-04T15:49:47;1.90;99.90